Airport Name : Phuket Intl

Other Name : Phuket Intl

ICAO : VTSP

IATA : HKT

FAA :

Latitude : 8.1132

Longitude : 98.316872

Country : Thailand

Local Date and Time : 01 Dec 2021 22:51

 

TAF (Terminal Aerodrome Forecast)

TAF VTSP 011100Z 0112/0218 08008KT 9999 FEW020 TEMPO 0112/0116 08015G25KT 3000 TSRA FEW016CB SCT020 BKN100 BECMG 0116/0118 00000KT BECMG 0200/0202 08010KT

 

METAR (METeorological Aerodrome Report)

VTSP 011530Z 09004KT 060V140 9999 FEW020 26/25 Q1010 NOSIG

VTSP 011500Z 13004KT 9999 FEW020 26/24 Q1010 NOSIG

VTSP 011430Z 11007KT 9999 FEW020 27/24 Q1009 NOSIG

VTSP 011400Z 12007KT 9999 FEW020 BKN100 26/24 Q1009 NOSIG

VTSP 011330Z 09006KT 060V130 9999 FEW020 BKN100 26/24 Q1009 NOSIG

VTSP 011300Z 09005KT 070V130 9999 FEW020 BKN100 25/24 Q1009 NOSIG

VTSP 011230Z 11009KT 9999 FEW020 BKN100 25/24 Q1008 NOSIG

VTSP 011200Z 08007KT 9000 FEW020 BKN100 25/24 Q1008 NOSIG

To Charter a Jet Click here.